Tiempo atmosférico en la estación meteorológica de Navarredonda De Gredos, Ávila (1550 m.)



Fecha
DESCASC
Temp. máxima en grados centígrados (hora)
DESCASC
Temp. mínima en grados centígrados (hora)
DESCASC
Temp. media en grados centígrados
DESCASC
Racha de viento máxima en m/sg (hora)
DESCASC
Velocidad máxima media en intervalos de 10 minutos(hora)
DESCASC
Precipitaciones diarias en mm
DESCASC
Precipitaciones de 00:00 a 06:00 en mm
DESCASC
Precipitaciones de 06:00 a 12:00 en mm
DESCASC
Precipitaciones de 12:00 a 18:00 en mm
DESCASC
Precipitaciones de 18:00 a 24:00 en mm
DESCASC
19-09-2019 21.7 (14:10) 8.5 (06:10) 15.1 6.67 (16:40) 2.78 (16:40) 1.3 0 0.1 0.8 0.4
18-09-2019 21.3 (14:00) 6.9 (06:30) 14.1 5 (17:50) 2.22 (16:50) 0.2 0.1 0 0.1 0
17-09-2019 21 (15:40) 9.5 (00:00) 15.3 13.33 (19:10) 6.39 (19:10) 0.2 0 0.1 0 0.1
16-09-2019 18 (17:40) 10.4 (00:00) 14.2 4.72 (16:40) 1.67 (01:30) 0.2 0 0.1 0 0.1
15-09-2019 17.9 (17:20) 11.1 (00:00) 14.5 6.11 (07:50) 3.33 (10:40) 0.3 0.1 0 0.1 0.1
14-09-2019 13.8 (12:30) 10.7 (00:00) 12.3 8.06 (10:50) 3.89 (12:00) 0.5 0.2 0.1 0.1 0.1
13-09-2019 18 (13:30) 9.1 (00:00) 13.6 11.67 (14:50) 5 (13:20) 0.1 0 0 0.1 0
12-09-2019 21 (16:40) 7.2 (00:00) 14.1 10.28 (18:50) 4.72 (18:50) 0 0 0 0 0
11-09-2019 18.8 (17:40) 6.5 (00:00) 12.6 20 (03:00) 7.22 (04:10) 0 0 0 0 0
10-09-2019 -- (--) -- (--) -- -- (--) -- (--) -- -- -- 0 0
09-09-2019 -- (--) -- (--) -- -- (--) -- (--) -- -- -- -- --
08-09-2019 -- (--) -- (--) -- -- (--) -- (--) -- -- -- -- --
07-09-2019 -- (--) -- (--) -- -- (--) -- (--) -- -- -- -- --
06-09-2019 -- (--) -- (--) -- -- (--) -- (--) -- -- -- -- --
05-09-2019 -- (--) -- (--) -- -- (--) -- (--) -- -- -- -- --
04-09-2019 -- (--) -- (--) -- -- (--) -- (--) -- -- -- -- --
03-09-2019 -- (--) -- (--) -- -- (--) -- (--) -- -- -- -- --
02-09-2019 -- (--) -- (--) -- -- (--) -- (--) -- -- -- -- --
01-09-2019 -- (--) -- (--) -- -- (--) -- (--) -- -- -- -- --
31-08-2019 -- (--) -- (--) -- -- (--) -- (--) -- -- -- -- --
30-08-2019 -- (--) -- (--) -- -- (--) -- (--) -- -- -- -- --
29-08-2019 -- (--) -- (--) -- -- (--) -- (--) -- -- -- -- --
28-08-2019 -- (--) -- (--) -- -- (--) -- (--) -- -- -- -- --
27-08-2019 -- (--) -- (--) -- -- (--) -- (--) -- -- -- -- --
26-08-2019 -- (--) -- (--) -- -- (--) -- (--) -- -- -- -- --
25-08-2019 25 (16:30) 13.2 (00:00) 19.1 10.56 (14:50) 5 (15:00) 0.2 0 0 0 0.2
24-08-2019 28.2 (16:40) 12.8 (00:00) 20.5 8.33 (12:50) 3.89 (12:50) 0 0 0 0 0
23-08-2019 26.2 (16:30) 11.6 (00:00) 18.9 8.06 (13:10) 3.61 (13:50) 0 0 0 0 0
22-08-2019 25.6 (15:20) 9.2 (00:00) 17.4 10.56 (16:10) 3.61 (16:20) 0 0 0 0 0
21-08-2019 23 (18:40) 11.7 (00:00) 17.3 6.67 (12:20) 3.06 (14:40) 0 0 0 0 0

Gráficas

Temp. máximas Temp. mínimas Temp. medias Precipitaciones Rachas de viento máximas Velocidades máximas media en intervalos de 10 minutos

Datos horarios

Fecha y hora oficial Temperatura (ºC) Velocidad del viento (km/h) Dirección del viento Racha (km/h) Dirección de racha Precipitación (mm) Presión (hPa) Tendencia (hPa) Humedad (%)
2019-09-19 23:00:00 11.9 4 Este 8 Nordeste 0.1 850.2 0.8 70
2019-09-19 22:00:00 13 0 Calma 6 Norte 0 850 0.7 61
2019-09-19 21:00:00 14.4 3 Este 8 Sur 0.1 849.7 0.1 55
2019-09-19 20:00:00 16.7 3 Sudeste 17 Sur 0.1 849.4 -0.5 46
2019-09-19 19:00:00 18.8 7 Sudeste 16 Sudeste 0.1 849.3 -0.9 37
2019-09-19 18:00:00 20 6 Sur 21 Sudoeste 0.1 849.6 -1 35
2019-09-19 17:00:00 20.7 8 Sudeste 24 Sudeste 0.2 849.9 -1 37
2019-09-19 16:00:00 21.4 7 Sur 22 Sudeste 0.2 850.2 -0.8 33
2019-09-19 15:00:00 21.6 5 Sudeste 18 Sur 0.3 850.6 -0.5 36
2019-09-19 14:00:00 21.4 6 Sudeste 18 Sudeste 0 850.9 -0.2 41
2019-09-19 13:00:00 20.5 5 Sur 16 Sudeste 0 851 0.2 48
2019-09-19 12:00:00 18.5 3 Sudeste 7 Sudeste 0 851.1 0.6 57
2019-09-19 11:00:00 16.3 2 Sudeste 5 Sur 0.1 851.1 0.8 72
2019-09-19 10:00:00 13.4 0 Calma 8 Nordeste 0 850.8 0.5 87
2019-09-19 09:00:00 9.3 4 Nordeste 7 Norte 0 850.5 0.3 95
2019-09-19 08:00:00 8.7 3 Nordeste 7 Norte 0 850.3 0 95
2019-09-19 07:00:00 9.1 4 Nordeste 6 Nordeste 0 850.3 -0.2 95
2019-09-19 06:00:00 8.9 3 Norte 8 Norte 0 850.2 -0.7 95
2019-09-19 05:00:00 9.1 4 Norte 8 Norte 0 850.3 -0.7 95
2019-09-19 04:00:00 9.3 4 Norte 6 Nordeste 0 850.5 -0.8 95
2019-09-19 03:00:00 9.3 0 Calma 6 Nordeste 0 850.9 -0.5 95
2019-09-19 02:00:00 9.4 3 Nordeste 6 Nordeste 0 851 -0.3 95
2019-09-19 01:00:00 9.4 0 Calma 7 Este 0 851.3 0.1 95
2019-09-19 00:00:00 9.6 2 Nordeste 7 Nordeste 0 851.4 0.7 94
2019-09-18 23:00:00 10 2 Nordeste 6 Nordeste 0 851.3 0.8 94
2019-09-18 22:00:00 10.8 3 Este 8 Nordeste 0 851.2 0.7 92
2019-09-18 21:00:00 12 3 Nordeste 9 Nordeste 0 850.7 0.7 91
2019-09-18 20:00:00 14.2 3 Nordeste 8 Norte 0 850.5 0.5 90
2019-09-18 19:00:00 14.7 4 Nordeste 16 Sudeste 0 850.5 0.2 84
2019-09-18 18:00:00 17.3 5 Este 18 Sudeste 0.1 850 -0.5 56
2019-09-18 17:00:00 19.1 7 Este 17 Este 0 850 -0.7 45
2019-09-18 16:00:00 19.4 6 Nordeste 17 Nordeste 0 850.3 -0.6 43
2019-09-18 15:00:00 20.4 3 Norte 12 Norte 0 850.5 -0.3 41
2019-09-18 14:00:00 21.1 4 Norte 15 Sudoeste 0 850.7 0.3 41
2019-09-18 13:00:00 20.4 4 Sur 13 Sur 0 850.9 0.7 44
2019-09-18 12:00:00 18.4 0 Calma 7 Sudeste 0 850.8 0.9 54
2019-09-18 11:00:00 16.1 0 Calma 4 Sudeste 0 850.4 1 73
2019-09-18 10:00:00 12 0 Calma 4 Nordeste 0 850.2 1.1 90
2019-09-18 09:00:00 9.1 0 Calma 7 Nordeste 0 849.9 1 95
2019-09-18 08:00:00 7.1 3 Este 6 Nordeste 0 849.4 0.4 95
2019-09-18 07:00:00 7.4 0 Calma 7 Norte 0 849.1 -0.3 96
2019-09-18 06:00:00 7.4 4 Norte 7 Nordeste 0 848.9 -0.7 96
2019-09-18 05:00:00 7.8 3 Este 6 Norte 0 849 -0.9 96
2019-09-18 04:00:00 8 2 Norte 6 Norte 0.1 849.4 -0.1 96
2019-09-18 03:00:00 9 4 Norte 7 Sudeste 0 849.6 -1 96
2019-09-18 02:00:00 9.3 0 Calma 6 Noroeste 0 849.9 -1.1 96
2019-09-18 01:00:00 9.5 0 Calma 12 Norte 0 849.5 -1.6 95
2019-09-18 00:00:00 9.7 5 Nordeste 15 Sudeste 0 850.6 -0.1 95
2019-09-17 23:00:00 9.6 0 Calma 19 Oeste 0 851 -0.9 95
2019-09-17 22:00:00 9.7 8 Oeste 30 Sudoeste 0 851.1 1.2 95
2019-09-17 21:00:00 9.9 5 Nordeste 24 Este 0 850.7 1.1 92
2019-09-15 18:00:00 16.5 8 Sudeste 16 Sudeste 0 851.3 -0.7 61
2019-09-15 17:00:00 16.5 3 Sur 11 Este 0 851.3 -0.8 63
2019-09-15 16:00:00 15.5 6 Sudeste 19 Sudeste 0 851.7 -0.8 68
2019-09-15 15:00:00 17 4 Sudeste 18 Sudeste 0 852 -0.3 66
2019-09-15 14:00:00 13.3 8 Sudeste 21 Sudeste 0.1 852.1 0 78
2019-09-15 13:00:00 14.4 6 Este 17 Este 0 852.5 0.4 74
2019-09-15 12:00:00 14.7 7 Este 18 Este 0 852.3 0.7 72
2019-09-15 11:00:00 12.9 4 Nordeste 20 Sudeste 0 852.1 0.6 94
2019-09-15 10:00:00 11.7 5 Nordeste 14 Este 0 852.1 0.3 95
2019-09-15 09:00:00 11.4 6 Este 15 Este 0 851.6 -0.2 96
2019-09-15 08:00:00 11.3 6 Este 22 Este 0 851.5 -0.2 96
2019-09-15 07:00:00 11.5 6 Nordeste 16 Este 0 851.8 -0.5 96
2019-09-15 06:00:00 11.2 3 Sudeste 19 Este 0.1 851.8 -1.1 95
2019-09-15 05:00:00 11.9 6 Este 17 Este 0 851.7 -1.3 96
2019-09-15 04:00:00 11.3 5 Nordeste 11 Este 0 852.3 -1 96
2019-09-15 03:00:00 11.3 5 Nordeste 13 Nordeste 0 852.9 -0.6 95
2019-09-15 02:00:00 11.4 3 Este 17 Nordeste 0 853 -0.9 95
2019-09-15 01:00:00 11.5 3 Este 19 Este 0 853.3 -0.4 94
2019-09-15 00:00:00 11.4 5 Este 16 Este 0 853.5 0 95
2019-09-14 23:00:00 11.2 4 Este 14 Este 0 853.9 0.7 92
2019-09-14 22:00:00 11.2 4 Este 12 Nordeste 0.1 853.7 0.8 92
2019-09-14 21:00:00 11.3 5 Este 18 Este 0 853.5 0.8 88
2019-09-14 20:00:00 12.1 7 Este 18 Sudeste 0 853.2 0.2 84
2019-09-14 19:00:00 12.5 7 Este 26 Este 0 852.9 -0.3 85
2019-09-14 18:00:00 12.6 9 Este 23 Sudeste 0 852.7 -1 91
2019-09-14 17:00:00 11.5 9 Este 21 Sudeste 0 853 -1.4 94
2019-09-14 16:00:00 11.4 5 Este 19 Este 0 853.2 -1.4 92
2019-09-14 15:00:00 11.9 7 Este 21 Este 0.1 853.7 -0.9 88
2019-09-14 14:00:00 12.2 13 Este 27 Este 0 854.4 -0.2 83
2019-09-14 13:00:00 13.5 10 Este 26 Este 0 854.6 0.1 74
2019-09-14 12:00:00 12.6 14 Este 28 Este 0 854.6 0.3 80
2019-09-14 11:00:00 12.5 10 Este 29 Este 0 854.6 -0.1 84
2019-09-14 10:00:00 11.8 9 Este 24 Nordeste 0 854.5 0.2 88
2019-09-14 09:00:00 11.1 8 Este 22 Este 0.1 854.3 -0.3 92
2019-09-14 08:00:00 11 4 Este 13 Este 0 854.7 -0.1 95
2019-09-14 07:00:00 11 9 Este 22 Este 0 854.3 -0.4 95
2019-09-14 06:00:00 10.8 5 Nordeste 16 Este 0 854.6 -1 95
2019-09-14 05:00:00 11.2 8 Este 21 Este 0.1 854.8 -0.9 97
2019-09-14 04:00:00 11.5 8 Este 23 Este 0 854.7 -1 97
2019-09-14 03:00:00 11.6 8 Este 23 Este 0 855.6 0 98
2019-09-14 02:00:00 11.7 8 Este 22 Este 0.1 855.7 -0.3 98
2019-09-14 01:00:00 11.8 6 Este 25 Nordeste 0 855.7 0 96
2019-09-14 00:00:00 11.9 11 Este 27 Este 0 855.6 0.2 91
2019-09-13 23:00:00 11.3 10 Este 20 Este 0 856 0.7 94
2019-09-13 22:00:00 11.1 7 Este 23 Este 0 855.7 0.3 97
2019-09-13 21:00:00 11.5 6 Este 18 Este 0 855.4 0.3 91
2019-09-13 20:00:00 11.3 4 Este 18 Sudeste 0 855.3 -0.4 90
2019-09-13 19:00:00 11.4 9 Este 34 Este 0 855.4 -0.9 90
2019-09-13 18:00:00 11.9 13 Este 34 Este 0.1 855.1 -1.5 87
2019-09-13 17:00:00 12.6 11 Este 24 Este 0 855.7 -0.6 83
2019-09-13 16:00:00 13.1 10 Este 32 Este 0 856.3 -0.1 73
2019-09-13 15:00:00 14.1 14 Este 42 Este 0 856.6 -0.2 59
2019-09-13 14:00:00 16.5 15 Este 39 Este 0 856.3 -0.2 47
2019-09-13 13:00:00 17.4 15 Este 38 Este 0 856.4 -0.6 44
2019-09-13 12:00:00 16.7 16 Este 32 Este 0 856.8 0.2 45
2019-09-13 11:00:00 16.5 14 Este 35 Este 0 856.5 -0.2 48
2019-09-13 10:00:00 14.4 7 Este 24 Este 0 857 0.2 59
2019-09-13 09:00:00 10.1 3 Este 9 Este 0 856.6 -0.7 91
2019-09-13 08:00:00 9.6 3 Sudeste 14 Este 0 856.7 -0.9 91
2019-09-13 07:00:00 9.6 2 Norte 7 Sudeste 0 856.8 -0.9 92
2019-09-13 06:00:00 10 4 Este 9 Nordeste 0 857.3 -1.2 88
2019-09-13 05:00:00 10 5 Nordeste 12 Nordeste 0 857.6 -0.8 87
2019-09-13 04:00:00 11.1 6 Nordeste 11 Nordeste 0 857.7 -1 82
2019-09-13 03:00:00 13.1 6 Sudeste 23 Sudeste 0 858.5 -0.4 79
2019-09-13 02:00:00 11.8 7 Sudeste 13 Sudeste 0 858.4 -0.4 83
2019-09-13 01:00:00 10.9 3 Nordeste 9 Nordeste 0 858.7 0.2 83
2019-09-13 00:00:00 11.3 3 Este 9 Nordeste 0 858.9 0.9 80
2019-09-12 23:00:00 11.5 6 Nordeste 9 Nordeste 0 858.8 0.8 78
2019-09-12 22:00:00 12.1 3 Este 7 Este 0 858.5 0.3 73
2019-09-12 21:00:00 14.1 3 Noroeste 13 Este 0 858 0 68
2019-09-12 20:00:00 16.1 6 Sudeste 23 Sudeste 0 858 0 63
2019-09-12 19:00:00 16.6 12 Sudeste 37 Sudeste 0 858.2 0.1 59
2019-09-12 18:00:00 19.1 10 Este 32 Este 0 858 -0.5 48
2019-09-12 17:00:00 20.5 13 Este 33 Este 0 858 -0.7 44
2019-09-12 16:00:00 20 13 Este 30 Este 0 858.1 -0.6 46
2019-09-12 15:00:00 19.7 12 Este 28 Este 0 858.5 -0.5 50
2019-09-12 14:00:00 17.7 8 Este 30 Nordeste 0 858.7 0 53
2019-09-12 13:00:00 18.8 10 Este 30 Este 0 858.7 0.9 53
2019-09-12 12:00:00 17.4 12 Este 34 Este 0 859 1.5 58
2019-09-12 11:00:00 16 12 Este 33 Este 0 858.7 1.6 60
2019-09-12 10:00:00 14.6 10 Este 27 Nordeste 0 857.8 0.8 67
2019-09-12 09:00:00 11.4 7 Este 16 Este 0 857.5 0.7 78
2019-09-12 08:00:00 7.7 5 Este 13 Nordeste 0 857.1 0.1 88
2019-09-12 07:00:00 7.6 7 Nordeste 13 Nordeste 0 857 0.2 87
2019-09-12 06:00:00 7.5 3 Nordeste 12 Nordeste 0 856.8 0 84
2019-09-12 05:00:00 8.3 4 Nordeste 10 Noroeste 0 857 0 84
2019-09-12 04:00:00 7.4 5 Nordeste 11 Norte 0 856.8 0 83
2019-09-12 03:00:00 7.8 5 Norte 10 Este 0 856.8 0.2 82
2019-09-12 02:00:00 9 6 Nordeste 11 Nordeste 0 857 0.3 79
2019-09-12 01:00:00 9.3 6 Nordeste 11 Norte 0 856.8 0.5 77
2019-09-12 00:00:00 9.8 5 Nordeste 11 Nordeste 0 856.6 1.2 74
2019-09-11 23:00:00 11.3 0 Calma 19 Nordeste 0 856.7 2.1 67
2019-09-11 22:00:00 12.1 5 Nordeste 18 Este 0 856.3 2 63
2019-09-11 21:00:00 13.2 8 Nordeste 23 Nordeste 0 855.4 1.1 57
2019-09-11 20:00:00 15.1 9 Norte 29 Norte 0 854.6 0.2 52
2019-09-11 19:00:00 16.3 11 Norte 27 Nordeste 0 854.3 0 48
2019-09-11 18:00:00 18.3 8 Nordeste 25 Norte 0 854.3 -0.1 45
2019-09-11 17:00:00 18.6 8 Nordeste 27 Nordeste 0 854.4 0.4 45
2019-09-11 16:00:00 18.2 8 Nordeste 29 Nordeste 0 854.3 0.1 46
2019-09-11 15:00:00 17.3 7 Nordeste 32 Norte 0 854.4 0.2 51
2019-09-11 14:00:00 15.1 12 Nordeste 28 Nordeste 0 854 -0.2 57
2019-09-11 13:00:00 14.3 9 Nordeste 29 Nordeste 0 854.2 0.1 62
2019-09-11 12:00:00 12.7 6 Nordeste 34 Norte 0 854.2 0.9 71
2019-09-11 11:00:00 9 13 Norte 37 Nordeste 0 854.2 1.7 86
2019-09-11 10:00:00 7.6 7 Norte 34 Este 0 854.1 2.1 87
2019-09-11 09:00:00 7.8 4 Sur 26 Este 0 853.3 1.4 88
2019-09-11 08:00:00 6.7 4 Nordeste 40 Norte 0 852.5 0.6 87
2019-09-11 07:00:00 7 7 Norte 45 Norte 0 852 1.9 84
2019-09-11 06:00:00 7.2 3 Sur 23 Noroeste 0 851.9 0.9 80
2019-09-11 05:00:00 6.7 0 Calma 59 Norte 0 851.9 -0.9 79
2019-09-11 04:00:00 6.7 24 Norte 67 Norte 0 850.1 -2.2 77
2019-09-11 03:00:00 6.9 23 Norte 72 Norte 0 851 -0.9 83
2019-09-11 02:00:00 7.6 10 Norte 31 Norte 0 852.8 2.1 84
2019-09-11 01:00:00 8.6 8 Norte 23 Nordeste 0 852.3 1.6 80
2019-09-11 00:00:00 8.1 3 Norte 32 Noroeste 0 851.9 1.8 83
2019-09-10 23:00:00 8 8 Norte 28 Norte 0 850.7 1.3 78
2019-09-10 22:00:00 10.1 6 Norte 31 Noroeste 0 850.7 1.6 61
2019-09-10 21:00:00 10.9 9 Norte 36 Norte 0 850.1 1.1 55
2019-09-10 20:00:00 11.5 9 Noroeste 36 Noroeste 0 849.4 0.4 52
2019-09-10 19:00:00 12.3 10 Noroeste 40 Norte 0 849.1 0.2 49
2019-09-10 18:00:00 12.1 9 Noroeste 39 Norte 0 849 0 46
2019-09-10 17:00:00 13.5 12 Noroeste 43 Noroeste 0 849 0.6 45
2019-09-10 16:00:00 13.6 11 Noroeste 38 Noroeste 0 848.9 0.1 46
2019-09-10 15:00:00 13.5 14 Noroeste 44 Noroeste 0 849 1.4 46
2019-09-10 14:00:00 13.4 13 Noroeste 41 Noroeste 0 848.4 -- 45
2019-09-10 13:00:00 12.9 14 Norte 39 Norte 0 848.8 -- 49
2019-09-10 12:00:00 10.7 14 Noroeste -- -- -- 847.6 -- 61
2019-09-10 11:00:00 -- -- -- -- -- -- -- -- --
2019-09-10 10:00:00 -- -- -- -- -- -- -- -- --
2019-09-10 09:00:00 -- -- -- -- -- -- -- -- --
2019-09-10 08:00:00 -- -- -- -- -- -- -- -- --
2019-09-10 07:00:00 -- -- -- -- -- -- -- -- --
2019-09-10 06:00:00 -- -- -- -- -- -- -- -- --
2019-09-10 05:00:00 -- -- -- -- -- -- -- -- --
2019-09-10 04:00:00 -- -- -- -- -- -- -- -- --
2019-09-10 03:00:00 -- -- -- -- -- -- -- -- --
2019-09-10 02:00:00 -- -- -- -- -- -- -- -- --
2019-09-10 01:00:00 -- -- -- -- -- -- -- -- --
2019-09-10 00:00:00 -- -- -- -- -- -- -- -- --
2019-09-09 23:00:00 -- -- -- -- -- -- -- -- --
2019-09-09 22:00:00 -- -- -- -- -- -- -- -- --
2019-09-09 21:00:00 -- -- -- -- -- -- -- -- --
2019-09-09 20:00:00 -- -- -- -- -- -- -- -- --
2019-09-09 19:00:00 -- -- -- -- -- -- -- -- --
2019-09-09 18:00:00 -- -- -- -- -- -- -- -- --
2019-09-09 17:00:00 -- -- -- -- -- -- -- -- --
2019-09-09 16:00:00 -- -- -- -- -- -- -- -- --
2019-09-09 15:00:00 -- -- -- -- -- -- -- -- --
2019-09-09 14:00:00 -- -- -- -- -- -- -- -- --
2019-09-09 13:00:00 -- -- -- -- -- -- -- -- --
2019-09-09 12:00:00 -- -- -- -- -- -- -- -- --
2019-09-09 11:00:00 -- -- -- -- -- -- -- -- --
2019-09-09 10:00:00 -- -- -- -- -- -- -- -- --
2019-09-09 09:00:00 -- -- -- -- -- -- -- -- --
2019-09-09 08:00:00 -- -- -- -- -- -- -- -- --
2019-09-09 07:00:00 -- -- -- -- -- -- -- -- --
2019-09-09 06:00:00 -- -- -- -- -- -- -- -- --
2019-09-09 05:00:00 -- -- -- -- -- -- -- -- --
2019-09-09 04:00:00 -- -- -- -- -- -- -- -- --
2019-09-09 03:00:00 -- -- -- -- -- -- -- -- --
2019-09-09 02:00:00 -- -- -- -- -- -- -- -- --
2019-09-09 01:00:00 -- -- -- -- -- -- -- -- --
2019-09-09 00:00:00 -- -- -- -- -- -- -- -- --
2019-09-08 23:00:00 -- -- -- -- -- -- -- -- --
2019-09-08 22:00:00 -- -- -- -- -- -- -- -- --
2019-09-08 21:00:00 -- -- -- -- -- -- -- -- --
2019-09-08 20:00:00 -- -- -- -- -- -- -- -- --
2019-09-08 19:00:00 -- -- -- -- -- -- -- -- --
2019-09-08 18:00:00 -- -- -- -- -- -- -- -- --
2019-09-08 17:00:00 -- -- -- -- -- -- -- -- --
2019-09-08 16:00:00 -- -- -- -- -- -- -- -- --
2019-09-08 15:00:00 -- -- -- -- -- -- -- -- --
2019-09-08 14:00:00 -- -- -- -- -- -- -- -- --
2019-09-08 13:00:00 -- -- -- -- -- -- -- -- --
2019-09-08 12:00:00 -- -- -- -- -- -- -- -- --
2019-09-08 11:00:00 -- -- -- -- -- -- -- -- --
2019-09-08 10:00:00 -- -- -- -- -- -- -- -- --
2019-09-08 09:00:00 -- -- -- -- -- -- -- -- --
2019-09-08 08:00:00 -- -- -- -- -- -- -- -- --
2019-09-08 07:00:00 -- -- -- -- -- -- -- -- --
2019-09-08 06:00:00 -- -- -- -- -- -- -- -- --
2019-09-08 05:00:00 -- -- -- -- -- -- -- -- --
2019-09-08 04:00:00 -- -- -- -- -- -- -- -- --
2019-09-08 03:00:00 -- -- -- -- -- -- -- -- --
2019-09-08 02:00:00 -- -- -- -- -- -- -- -- --
2019-09-08 01:00:00 -- -- -- -- -- -- -- -- --
2019-09-08 00:00:00 -- -- -- -- -- -- -- -- --
2019-09-07 23:00:00 -- -- -- -- -- -- -- -- --
2019-09-07 22:00:00 -- -- -- -- -- -- -- -- --
2019-09-07 21:00:00 -- -- -- -- -- -- -- -- --
2019-09-07 20:00:00 -- -- -- -- -- -- -- -- --
2019-09-07 19:00:00 -- -- -- -- -- -- -- -- --
2019-09-07 18:00:00 -- -- -- -- -- -- -- -- --
2019-09-07 17:00:00 -- -- -- -- -- -- -- -- --
2019-09-07 16:00:00 -- -- -- -- -- -- -- -- --
2019-09-07 15:00:00 -- -- -- -- -- -- -- -- --
2019-09-07 14:00:00 -- -- -- -- -- -- -- -- --
2019-09-07 13:00:00 -- -- -- -- -- -- -- -- --
2019-09-07 12:00:00 -- -- -- -- -- -- -- -- --
2019-09-07 11:00:00 -- -- -- -- -- -- -- -- --
2019-09-07 10:00:00 -- -- -- -- -- -- -- -- --
2019-09-07 09:00:00 -- -- -- -- -- -- -- -- --
2019-09-07 08:00:00 -- -- -- -- -- -- -- -- --
2019-09-07 07:00:00 -- -- -- -- -- -- -- -- --
2019-09-07 06:00:00 -- -- -- -- -- -- -- -- --
2019-09-07 05:00:00 -- -- -- -- -- -- -- -- --
2019-09-07 04:00:00 -- -- -- -- -- -- -- -- --
2019-09-07 03:00:00 -- -- -- -- -- -- -- -- --
2019-09-07 02:00:00 -- -- -- -- -- -- -- -- --
2019-09-07 01:00:00 -- -- -- -- -- -- -- -- --
2019-09-07 00:00:00 -- -- -- -- -- -- -- -- --
2019-09-06 23:00:00 -- -- -- -- -- -- -- -- --
2019-09-06 22:00:00 -- -- -- -- -- -- -- -- --
2019-09-06 21:00:00 -- -- -- -- -- -- -- -- --
2019-09-06 20:00:00 -- -- -- -- -- -- -- -- --
2019-09-06 19:00:00 -- -- -- -- -- -- -- -- --
2019-09-06 18:00:00 -- -- -- -- -- -- -- -- --
2019-09-06 17:00:00 -- -- -- -- -- -- -- -- --
2019-09-06 16:00:00 -- -- -- -- -- -- -- -- --
2019-09-06 15:00:00 -- -- -- -- -- -- -- -- --
2019-09-06 14:00:00 -- -- -- -- -- -- -- -- --
2019-09-06 13:00:00 -- -- -- -- -- -- -- -- --
2019-09-06 12:00:00 -- -- -- -- -- -- -- -- --
2019-09-06 11:00:00 -- -- -- -- -- -- -- -- --
2019-09-06 10:00:00 -- -- -- -- -- -- -- -- --
2019-09-06 09:00:00 -- -- -- -- -- -- -- -- --
2019-09-06 08:00:00 -- -- -- -- -- -- -- -- --
2019-09-06 07:00:00 -- -- -- -- -- -- -- -- --
2019-09-06 06:00:00 -- -- -- -- -- -- -- -- --
2019-09-06 05:00:00 -- -- -- -- -- -- -- -- --
2019-09-06 04:00:00 -- -- -- -- -- -- -- -- --
2019-09-06 03:00:00 -- -- -- -- -- -- -- -- --
2019-09-06 02:00:00 -- -- -- -- -- -- -- -- --
2019-09-06 01:00:00 -- -- -- -- -- -- -- -- --
2019-09-06 00:00:00 -- -- -- -- -- -- -- -- --
2019-09-05 23:00:00 -- -- -- -- -- -- -- -- --
2019-09-05 22:00:00 -- -- -- -- -- -- -- -- --
2019-09-05 21:00:00 -- -- -- -- -- -- -- -- --
2019-09-05 20:00:00 -- -- -- -- -- -- -- -- --
2019-09-05 19:00:00 -- -- -- -- -- -- -- -- --
2019-09-05 18:00:00 -- -- -- -- -- -- -- -- --
2019-09-05 17:00:00 -- -- -- -- -- -- -- -- --
2019-09-05 16:00:00 -- -- -- -- -- -- -- -- --
2019-09-05 15:00:00 -- -- -- -- -- -- -- -- --
2019-09-05 14:00:00 -- -- -- -- -- -- -- -- --
2019-09-05 13:00:00 -- -- -- -- -- -- -- -- --
2019-09-05 12:00:00 -- -- -- -- -- -- -- -- --
2019-09-05 11:00:00 -- -- -- -- -- -- -- -- --
2019-09-05 10:00:00 -- -- -- -- -- -- -- -- --
2019-09-05 09:00:00 -- -- -- -- -- -- -- -- --
2019-09-05 08:00:00 -- -- -- -- -- -- -- -- --
2019-09-05 07:00:00 -- -- -- -- -- -- -- -- --
2019-09-05 06:00:00 -- -- -- -- -- -- -- -- --
2019-09-05 05:00:00 -- -- -- -- -- -- -- -- --
2019-09-05 04:00:00 -- -- -- -- -- -- -- -- --
2019-09-05 03:00:00 -- -- -- -- -- -- -- -- --
2019-09-05 02:00:00 -- -- -- -- -- -- -- -- --
2019-09-05 01:00:00 -- -- -- -- -- -- -- -- --
2019-09-05 00:00:00 -- -- -- -- -- -- -- -- --
2019-09-04 23:00:00 -- -- -- -- -- -- -- -- --
2019-09-04 22:00:00 -- -- -- -- -- -- -- -- --
2019-09-04 21:00:00 -- -- -- -- -- -- -- -- --
2019-09-04 20:00:00 -- -- -- -- -- -- -- -- --
2019-09-04 19:00:00 -- -- -- -- -- -- -- -- --
2019-09-04 18:00:00 -- -- -- -- -- -- -- -- --
2019-09-04 17:00:00 -- -- -- -- -- -- -- -- --
2019-09-04 16:00:00 -- -- -- -- -- -- -- -- --
2019-09-04 15:00:00 -- -- -- -- -- -- -- -- --
2019-09-04 14:00:00 -- -- -- -- -- -- -- -- --
2019-09-04 13:00:00 -- -- -- -- -- -- -- -- --
2019-09-04 12:00:00 -- -- -- -- -- -- -- -- --
2019-09-04 11:00:00 -- -- -- -- -- -- -- -- --
2019-09-04 10:00:00 -- -- -- -- -- -- -- -- --
2019-09-04 09:00:00 -- -- -- -- -- -- -- -- --
2019-09-04 08:00:00 -- -- -- -- -- -- -- -- --
2019-09-04 07:00:00 -- -- -- -- -- -- -- -- --
2019-09-04 06:00:00 -- -- -- -- -- -- -- -- --
2019-09-04 05:00:00 -- -- -- -- -- -- -- -- --
2019-09-04 04:00:00 -- -- -- -- -- -- -- -- --
2019-09-04 03:00:00 -- -- -- -- -- -- -- -- --
2019-09-04 02:00:00 -- -- -- -- -- -- -- -- --
2019-09-04 01:00:00 -- -- -- -- -- -- -- -- --
2019-09-04 00:00:00 -- -- -- -- -- -- -- -- --
2019-09-03 23:00:00 -- -- -- -- -- -- -- -- --
2019-09-03 22:00:00 -- -- -- -- -- -- -- -- --
2019-09-03 21:00:00 -- -- -- -- -- -- -- -- --
2019-09-03 20:00:00 -- -- -- -- -- -- -- -- --
2019-09-03 19:00:00 -- -- -- -- -- -- -- -- --
2019-09-03 18:00:00 -- -- -- -- -- -- -- -- --
2019-09-03 17:00:00 -- -- -- -- -- -- -- -- --
2019-09-03 16:00:00 -- -- -- -- -- -- -- -- --
2019-09-03 15:00:00 -- -- -- -- -- -- -- -- --
2019-09-03 14:00:00 -- -- -- -- -- -- -- -- --
2019-09-03 13:00:00 -- -- -- -- -- -- -- -- --
2019-09-03 12:00:00 -- -- -- -- -- -- -- -- --
2019-09-03 11:00:00 -- -- -- -- -- -- -- -- --
2019-09-03 10:00:00 -- -- -- -- -- -- -- -- --
2019-09-03 09:00:00 -- -- -- -- -- -- -- -- --
2019-09-03 08:00:00 -- -- -- -- -- -- -- -- --
2019-09-03 07:00:00 -- -- -- -- -- -- -- -- --
2019-09-03 06:00:00 -- -- -- -- -- -- -- -- --
2019-09-03 05:00:00 -- -- -- -- -- -- -- -- --
2019-09-03 04:00:00 -- -- -- -- -- -- -- -- --
2019-09-03 03:00:00 -- -- -- -- -- -- -- -- --
2019-09-03 02:00:00 -- -- -- -- -- -- -- -- --
2019-09-03 01:00:00 -- -- -- -- -- -- -- -- --
2019-09-03 00:00:00 -- -- -- -- -- -- -- -- --
2019-09-02 23:00:00 -- -- -- -- -- -- -- -- --
2019-09-02 22:00:00 -- -- -- -- -- -- -- -- --
2019-09-02 21:00:00 -- -- -- -- -- -- -- -- --
2019-09-02 20:00:00 -- -- -- -- -- -- -- -- --
2019-09-02 19:00:00 -- -- -- -- -- -- -- -- --
2019-09-02 18:00:00 -- -- -- -- -- -- -- -- --
2019-09-02 17:00:00 -- -- -- -- -- -- -- -- --
2019-09-02 16:00:00 -- -- -- -- -- -- -- -- --
2019-09-02 15:00:00 -- -- -- -- -- -- -- -- --
2019-09-02 14:00:00 -- -- -- -- -- -- -- -- --
2019-09-02 13:00:00 -- -- -- -- -- -- -- -- --
2019-09-02 12:00:00 -- -- -- -- -- -- -- -- --
2019-09-02 11:00:00 -- -- -- -- -- -- -- -- --
2019-09-02 10:00:00 -- -- -- -- -- -- -- -- --
2019-09-02 09:00:00 -- -- -- -- -- -- -- -- --
2019-09-02 08:00:00 -- -- -- -- -- -- -- -- --
2019-09-02 07:00:00 -- -- -- -- -- -- -- -- --
2019-09-02 06:00:00 -- -- -- -- -- -- -- -- --
2019-09-02 05:00:00 -- -- -- -- -- -- -- -- --
2019-09-02 04:00:00 -- -- -- -- -- -- -- -- --
2019-09-02 03:00:00 -- -- -- -- -- -- -- -- --
2019-09-02 02:00:00 -- -- -- -- -- -- -- -- --
2019-09-02 01:00:00 -- -- -- -- -- -- -- -- --
2019-09-02 00:00:00 -- -- -- -- -- -- -- -- --
2019-09-01 23:00:00 -- -- -- -- -- -- -- -- --
2019-09-01 22:00:00 -- -- -- -- -- -- -- -- --
2019-09-01 21:00:00 -- -- -- -- -- -- -- -- --
2019-09-01 20:00:00 -- -- -- -- -- -- -- -- --
2019-09-01 19:00:00 -- -- -- -- -- -- -- -- --
2019-09-01 18:00:00 -- -- -- -- -- -- -- -- --
2019-09-01 17:00:00 -- -- -- -- -- -- -- -- --
2019-09-01 16:00:00 -- -- -- -- -- -- -- -- --
2019-09-01 15:00:00 -- -- -- -- -- -- -- -- --
2019-09-01 14:00:00 -- -- -- -- -- -- -- -- --
2019-09-01 13:00:00 -- -- -- -- -- -- -- -- --
2019-09-01 12:00:00 -- -- -- -- -- -- -- -- --
2019-09-01 11:00:00 -- -- -- -- -- -- -- -- --
2019-09-01 10:00:00 -- -- -- -- -- -- -- -- --
2019-09-01 09:00:00 -- -- -- -- -- -- -- -- --
2019-09-01 08:00:00 -- -- -- -- -- -- -- -- --
2019-09-01 07:00:00 -- -- -- -- -- -- -- -- --
2019-09-01 06:00:00 -- -- -- -- -- -- -- -- --
2019-09-01 05:00:00 -- -- -- -- -- -- -- -- --
2019-09-01 04:00:00 -- -- -- -- -- -- -- -- --
2019-09-01 03:00:00 -- -- -- -- -- -- -- -- --
2019-09-01 02:00:00 -- -- -- -- -- -- -- -- --
2019-09-01 01:00:00 -- -- -- -- -- -- -- -- --
2019-09-01 00:00:00 -- -- -- -- -- -- -- -- --
2019-08-31 23:00:00 -- -- -- -- -- -- -- -- --
2019-08-31 22:00:00 -- -- -- -- -- -- -- -- --
2019-08-31 21:00:00 -- -- -- -- -- -- -- -- --
2019-08-31 20:00:00 -- -- -- -- -- -- -- -- --
2019-08-31 19:00:00 -- -- -- -- -- -- -- -- --
2019-08-31 18:00:00 -- -- -- -- -- -- -- -- --
2019-08-31 17:00:00 -- -- -- -- -- -- -- -- --
2019-08-31 16:00:00 -- -- -- -- -- -- -- -- --
2019-08-31 15:00:00 -- -- -- -- -- -- -- -- --
2019-08-31 14:00:00 -- -- -- -- -- -- -- -- --
2019-08-31 13:00:00 -- -- -- -- -- -- -- -- --
2019-08-31 12:00:00 -- -- -- -- -- -- -- -- --
2019-08-31 11:00:00 -- -- -- -- -- -- -- -- --
2019-08-31 10:00:00 -- -- -- -- -- -- -- -- --
2019-08-31 09:00:00 -- -- -- -- -- -- -- -- --
2019-08-31 08:00:00 -- -- -- -- -- -- -- -- --
2019-08-31 07:00:00 -- -- -- -- -- -- -- -- --
2019-08-31 06:00:00 -- -- -- -- -- -- -- -- --
2019-08-31 05:00:00 -- -- -- -- -- -- -- -- --
2019-08-31 04:00:00 -- -- -- -- -- -- -- -- --
2019-08-31 03:00:00 -- -- -- -- -- -- -- -- --
2019-08-31 02:00:00 -- -- -- -- -- -- -- -- --
2019-08-31 01:00:00 -- -- -- -- -- -- -- -- --
2019-08-31 00:00:00 -- -- -- -- -- -- -- -- --
2019-08-30 23:00:00 -- -- -- -- -- -- -- -- --
2019-08-30 22:00:00 -- -- -- -- -- -- -- -- --
2019-08-30 21:00:00 -- -- -- -- -- -- -- -- --
2019-08-30 20:00:00 -- -- -- -- -- -- -- -- --
2019-08-30 19:00:00 -- -- -- -- -- -- -- -- --
2019-08-30 18:00:00 -- -- -- -- -- -- -- -- --
2019-08-30 17:00:00 -- -- -- -- -- -- -- -- --
2019-08-30 16:00:00 -- -- -- -- -- -- -- -- --
2019-08-30 15:00:00 -- -- -- -- -- -- -- -- --
2019-08-30 14:00:00 -- -- -- -- -- -- -- -- --
2019-08-30 13:00:00 -- -- -- -- -- -- -- -- --
2019-08-30 12:00:00 -- -- -- -- -- -- -- -- --
2019-08-30 11:00:00 -- -- -- -- -- -- -- -- --
2019-08-30 10:00:00 -- -- -- -- -- -- -- -- --
2019-08-30 09:00:00 -- -- -- -- -- -- -- -- --
2019-08-30 08:00:00 -- -- -- -- -- -- -- -- --
2019-08-30 07:00:00 -- -- -- -- -- -- -- -- --
2019-08-30 06:00:00 -- -- -- -- -- -- -- -- --
2019-08-30 05:00:00 -- -- -- -- -- -- -- -- --
2019-08-30 04:00:00 -- -- -- -- -- -- -- -- --
2019-08-30 03:00:00 -- -- -- -- -- -- -- -- --
2019-08-30 02:00:00 -- -- -- -- -- -- -- -- --
2019-08-30 01:00:00 -- -- -- -- -- -- -- -- --
2019-08-30 00:00:00 -- -- -- -- -- -- -- -- --
2019-08-29 23:00:00 -- -- -- -- -- -- -- -- --
2019-08-29 22:00:00 -- -- -- -- -- -- -- -- --
2019-08-29 21:00:00 -- -- -- -- -- -- -- -- --
2019-08-29 20:00:00 -- -- -- -- -- -- -- -- --
2019-08-29 19:00:00 -- -- -- -- -- -- -- -- --
2019-08-29 18:00:00 -- -- -- -- -- -- -- -- --
2019-08-29 17:00:00 -- -- -- -- -- -- -- -- --
2019-08-29 16:00:00 -- -- -- -- -- -- -- -- --
2019-08-29 15:00:00 -- -- -- -- -- -- -- -- --
2019-08-29 14:00:00 -- -- -- -- -- -- -- -- --
2019-08-29 13:00:00 -- -- -- -- -- -- -- -- --
2019-08-29 12:00:00 -- -- -- -- -- -- -- -- --
2019-08-29 11:00:00 -- -- -- -- -- -- -- -- --
2019-08-29 10:00:00 -- -- -- -- -- -- -- -- --
2019-08-29 09:00:00 -- -- -- -- -- -- -- -- --
2019-08-29 08:00:00 -- -- -- -- -- -- -- -- --
2019-08-29 07:00:00 -- -- -- -- -- -- -- -- --
2019-08-29 06:00:00 -- -- -- -- -- -- -- -- --
2019-08-29 05:00:00 -- -- -- -- -- -- -- -- --
2019-08-29 04:00:00 -- -- -- -- -- -- -- -- --
2019-08-29 03:00:00 -- -- -- -- -- -- -- -- --
2019-08-29 02:00:00 -- -- -- -- -- -- -- -- --
2019-08-29 01:00:00 -- -- -- -- -- -- -- -- --
2019-08-29 00:00:00 -- -- -- -- -- -- -- -- --
2019-08-28 23:00:00 -- -- -- -- -- -- -- -- --
2019-08-28 22:00:00 -- -- -- -- -- -- -- -- --
2019-08-28 21:00:00 -- -- -- -- -- -- -- -- --
2019-08-28 20:00:00 -- -- -- -- -- -- -- -- --
2019-08-28 19:00:00 -- -- -- -- -- -- -- -- --
2019-08-28 18:00:00 -- -- -- -- -- -- -- -- --
2019-08-28 17:00:00 -- -- -- -- -- -- -- -- --
2019-08-28 16:00:00 -- -- -- -- -- -- -- -- --
2019-08-28 15:00:00 -- -- -- -- -- -- -- -- --
2019-08-28 14:00:00 -- -- -- -- -- -- -- -- --
2019-08-28 13:00:00 -- -- -- -- -- -- -- -- --
2019-08-28 12:00:00 -- -- -- -- -- -- -- -- --
2019-08-28 11:00:00 -- -- -- -- -- -- -- -- --
2019-08-28 10:00:00 -- -- -- -- -- -- -- -- --
2019-08-28 09:00:00 -- -- -- -- -- -- -- -- --
2019-08-28 08:00:00 -- -- -- -- -- -- -- -- --
2019-08-28 07:00:00 -- -- -- -- -- -- -- -- --
2019-08-28 06:00:00 -- -- -- -- -- -- -- -- --
2019-08-28 05:00:00 -- -- -- -- -- -- -- -- --
2019-08-28 04:00:00 -- -- -- -- -- -- -- -- --
2019-08-28 03:00:00 -- -- -- -- -- -- -- -- --
2019-08-28 02:00:00 -- -- -- -- -- -- -- -- --
2019-08-28 01:00:00 -- -- -- -- -- -- -- -- --
2019-08-28 00:00:00 -- -- -- -- -- -- -- -- --
2019-08-27 23:00:00 -- -- -- -- -- -- -- -- --
2019-08-27 22:00:00 -- -- -- -- -- -- -- -- --
2019-08-27 21:00:00 -- -- -- -- -- -- -- -- --
2019-08-27 20:00:00 -- -- -- -- -- -- -- -- --
2019-08-27 19:00:00 -- -- -- -- -- -- -- -- --
2019-08-27 18:00:00 -- -- -- -- -- -- -- -- --
2019-08-27 17:00:00 -- -- -- -- -- -- -- -- --
2019-08-27 16:00:00 -- -- -- -- -- -- -- -- --
2019-08-27 15:00:00 -- -- -- -- -- -- -- -- --
2019-08-27 14:00:00 -- -- -- -- -- -- -- -- --
2019-08-27 13:00:00 -- -- -- -- -- -- -- -- --
2019-08-27 12:00:00 -- -- -- -- -- -- -- -- --
2019-08-27 11:00:00 -- -- -- -- -- -- -- -- --
2019-08-27 10:00:00 -- -- -- -- -- -- -- -- --
2019-08-27 09:00:00 -- -- -- -- -- -- -- -- --
2019-08-27 08:00:00 -- -- -- -- -- -- -- -- --
2019-08-27 07:00:00 -- -- -- -- -- -- -- -- --
2019-08-27 06:00:00 -- -- -- -- -- -- -- -- --
2019-08-27 05:00:00 -- -- -- -- -- -- -- -- --
2019-08-27 04:00:00 -- -- -- -- -- -- -- -- --
2019-08-27 03:00:00 -- -- -- -- -- -- -- -- --
2019-08-27 02:00:00 -- -- -- -- -- -- -- -- --
2019-08-27 01:00:00 -- -- -- -- -- -- -- -- --
2019-08-27 00:00:00 -- -- -- -- -- -- -- -- --
2019-08-26 23:00:00 -- -- -- -- -- -- -- -- --
2019-08-26 22:00:00 -- -- -- -- -- -- -- -- --
2019-08-26 21:00:00 -- -- -- -- -- -- -- -- --
2019-08-26 20:00:00 -- -- -- -- -- -- -- -- --
2019-08-26 19:00:00 -- -- -- -- -- -- -- -- --
2019-08-26 18:00:00 -- -- -- -- -- -- -- -- --
2019-08-26 17:00:00 -- -- -- -- -- -- -- -- --
2019-08-26 16:00:00 -- -- -- -- -- -- -- -- --
2019-08-26 15:00:00 -- -- -- -- -- -- -- -- --
2019-08-26 14:00:00 -- -- -- -- -- -- -- -- --
2019-08-26 13:00:00 -- -- -- -- -- -- -- -- --
2019-08-26 12:00:00 -- -- -- -- -- -- -- -- --
2019-08-26 11:00:00 -- -- -- -- -- -- -- -- --
2019-08-26 10:00:00 -- -- -- -- -- -- -- -- --
2019-08-26 09:00:00 -- -- -- -- -- -- -- -- --
2019-08-26 08:00:00 -- -- -- -- -- -- -- -- --
2019-08-26 07:00:00 -- -- -- -- -- -- -- -- --
2019-08-26 06:00:00 -- -- -- -- -- -- -- -- --
2019-08-26 05:00:00 -- -- -- -- -- -- -- -- --
2019-08-26 04:00:00 11.9 8 Este 30 Este 0.1 848.7 -1.2 97
2019-08-26 03:00:00 11.9 10 Este 25 Este 0.1 848.3 -1.5 92
2019-08-26 02:00:00 12.2 3 Este 32 Este 0.1 848.9 -0.4 94
2019-08-26 01:00:00 12.7 10 Este 22 Nordeste 0 849.9 1.2 94
2019-08-26 00:00:00 13.2 6 Este 30 Nordeste 0.1 849.8 1.3 92
2019-08-25 23:00:00 13.5 3 Este 28 Este 0.1 849.3 0.6 90
2019-08-25 22:00:00 15.7 14 Este 28 Este 0 848.7 0.1 60
2019-08-25 21:00:00 18.9 4 Nordeste 9 Nordeste 0 848.5 -0.6 44
2019-08-25 20:00:00 20.7 5 Este 32 Este 0 848.7 -0.7 41
2019-08-25 19:00:00 22.6 6 Sur 30 Sudeste 0 848.6 -1.1 36
2019-08-25 18:00:00 23 12 Sudeste 33 Sur 0 849.1 -1.2 36
2019-08-25 17:00:00 24.8 11 Sudeste 34 Sudeste 0 849.4 -1.1 33
2019-08-25 16:00:00 24.1 16 Sudeste 37 Sur 0 849.7 -1.2 35
2019-08-25 15:00:00 22.9 18 Sudeste 38 Sudeste 0 850.3 -0.8 37
2019-08-25 14:00:00 23.5 17 Sudeste 37 Sudeste 0 850.5 -0.3 37
2019-08-25 13:00:00 23.9 9 Sudeste 27 Sudeste 0 850.9 -0.1 38
2019-08-25 12:00:00 22.7 10 Sudeste 29 Este 0 851.1 0.3 38
2019-08-25 11:00:00 22.7 6 Este 17 Sudeste 0 850.8 0.1 38
2019-08-25 10:00:00 17.5 5 Nordeste 16 Este 0 851 0.3 52
2019-08-25 09:00:00 15.1 5 Nordeste 13 Este 0 850.8 -0.1 49
2019-08-25 08:00:00 13.8 5 Nordeste 11 Nordeste 0 850.7 0 47
2019-08-25 07:00:00 14.5 6 Nordeste 13 Nordeste 0 850.7 -0.2 44
2019-08-25 06:00:00 15.2 7 Nordeste 16 Nordeste 0 850.9 -0.2 41
2019-08-25 05:00:00 15.1 2 Noroeste 7 Norte 0 850.7 -0.6 41
2019-08-25 04:00:00 14.7 0 Calma 9 Noroeste 0 850.9 -0.7 41
2019-08-25 03:00:00 16.7 0 Calma 9 Nordeste 0 851.1 -0.8 39
2019-08-25 02:00:00 16.1 4 Nordeste 8 Nordeste 0 851.3 -1.1 39
2019-08-25 01:00:00 16.5 3 Nordeste 7 Nordeste 0 851.6 -0.5 37
2019-08-25 00:00:00 17.3 5 Norte 8 Nordeste 0 851.9 0.2 36
2019-08-24 23:00:00 18.4 3 Norte 6 Sudoeste 0 852.4 0.7 34
2019-08-24 22:00:00 20.1 3 Noroeste 7 Norte 0 852.1 0.1 31
2019-08-24 21:00:00 21.7 3 Sudeste 13 Sur 0 851.7 -0.8 29
2019-08-24 20:00:00 23.2 5 Sur 16 Sur 0 851.7 -1.2 28
2019-08-24 19:00:00 24.2 5 Sur 18 Sur 0 852 -1 28
2019-08-24 18:00:00 24.9 4 Sudoeste 22 Sudeste 0 852.5 -0.7 26
2019-08-24 17:00:00 25.5 12 Sudeste 30 Sudeste 0 852.9 -0.6 25
2019-08-24 16:00:00 25.8 8 Sur 27 Sudeste 0 853 -0.6 27
2019-08-24 15:00:00 26.3 6 Sudeste 22 Sudeste 0 853.2 -0.6 25
2019-08-24 14:00:00 26.6 9 Sudeste 27 Sudeste 0 853.5 0.1 26
2019-08-24 13:00:00 26.2 10 Sudeste 30 Sudeste 0 853.6 0.4 27
2019-08-24 12:00:00 24.2 10 Sudeste 19 Sudeste 0 853.8 0.8 29
2019-08-24 11:00:00 23.5 4 Sudeste 10 Sudeste 0 853.4 0.7 33
2019-08-24 10:00:00 20.4 3 Este 7 Este 0 853.2 0.6 40
2019-08-24 09:00:00 15.9 4 Este 7 Nordeste 0 853 0.4 47
2019-08-24 08:00:00 13.7 5 Nordeste 13 Nordeste 0 852.7 0.1 48
2019-08-24 07:00:00 13.5 6 Nordeste 9 Nordeste 0 852.6 -0.2 50
2019-08-24 06:00:00 13.4 5 Norte 9 Norte 0 852.6 -0.3 49
2019-08-24 05:00:00 12.8 3 Nordeste 6 Norte 0 852.6 -0.6 47
2019-08-24 04:00:00 13.5 4 Norte 7 Norte 0 852.8 -0.4 43
2019-08-24 03:00:00 13.6 3 Norte 7 Norte 0 852.9 -0.1 40
2019-08-24 02:00:00 14.3 5 Norte 8 Norte 0 853.2 0.3 37
2019-08-24 01:00:00 15.2 5 Nordeste 8 Nordeste 0 853.2 0.6 37
2019-08-24 00:00:00 15.5 3 Norte 9 Nordeste 0 853 0.7 36
2019-08-23 23:00:00 17.5 0 Calma 7 Sudeste 0 852.9 0.8 33
2019-08-23 22:00:00 18.9 0 Calma 7 Sudeste 0 852.6 -0.1 32
2019-08-23 21:00:00 21.5 3 Sudeste 15 Sur 0 852.3 -0.6 31
2019-08-23 20:00:00 22.7 6 Sur 20 Sudeste 0 852.1 -1 30
2019-08-23 19:00:00 24.9 3 Sur 22 Sudeste 0 852.7 -0.6 28
2019-08-23 18:00:00 24.7 9 Sur 20 Sur 0 852.9 -0.8 29
2019-08-23 17:00:00 25.5 4 Sur 20 Sudeste 0 853.1 -0.9 28
2019-08-23 16:00:00 25.6 10 Sudeste 22 Este 0 853.3 -0.9 29
2019-08-23 15:00:00 25.2 2 Sur 24 Sudeste 0 853.7 -0.6 28
2019-08-23 14:00:00 24.1 11 Sudeste 29 Sudeste 0 854 -0.1 31
2019-08-23 13:00:00 24.2 7 Sudeste 26 Este 0 854.2 0.4 31
2019-08-23 12:00:00 22.7 12 Este 25 Sudeste 0 854.3 0.5 33
2019-08-23 11:00:00 20.7 7 Este 17 Este 0 854.1 0.6 41
2019-08-23 10:00:00 18.8 4 Este 12 Este 0 853.8 0.6 50
2019-08-23 09:00:00 14.8 5 Este 12 Este 0 853.8 0.7 54
2019-08-23 08:00:00 12.2 7 Nordeste 14 Este 0 853.5 0.4 43
2019-08-23 07:00:00 13 6 Nordeste 12 Nordeste 0 853.2 0 39
2019-08-23 06:00:00 13.2 6 Este 10 Este 0 853.1 -0.2 37
2019-08-23 05:00:00 11.8 5 Nordeste 12 Nordeste 0 853.1 -0.3 40
2019-08-23 04:00:00 11.7 6 Nordeste 10 Nordeste 0 853.2 -0.4 40
2019-08-23 03:00:00 12.3 4 Norte 8 Norte 0 853.3 -0.3 37
2019-08-23 02:00:00 13.2 5 Norte 7 Norte 0 853.4 -0.2 35
2019-08-23 01:00:00 14.1 4 Nordeste 8 Nordeste 0 853.6 0.4 35
2019-08-23 00:00:00 15.4 3 Nordeste 12 Norte 0 853.6 0.6 36
2019-08-22 23:00:00 16.6 6 Norte 13 Norte 0 853.6 0.8 40
2019-08-22 22:00:00 18.1 3 Este 15 Sudeste 0 853.2 0.3 39
2019-08-22 21:00:00 20.7 6 Sudeste 15 Sudeste 0 853 -0.2 35
2019-08-22 20:00:00 22.3 5 Sudeste 19 Sudeste 0 852.8 -0.7 32
2019-08-22 19:00:00 23.6 8 Sudeste 23 Sudeste 0 852.9 -0.8 31
2019-08-22 18:00:00 23.7 12 Sudeste 25 Sudeste 0 853.2 -0.6 31
2019-08-22 17:00:00 24.2 12 Sudeste 38 Sur 0 853.5 -0.4 32
2019-08-22 16:00:00 24.9 11 Sudeste 27 Sudeste 0 853.7 -0.7 28
2019-08-22 15:00:00 24.7 9 Sudeste 24 Sudeste 0 853.8 -0.7 28
2019-08-22 14:00:00 24.4 9 Sudeste 23 Este 0 853.9 -0.1 28
2019-08-22 13:00:00 23.1 9 Este 20 Sudeste 0 854.4 0.5 32
2019-08-22 12:00:00 22.7 8 Sudeste 21 Sudeste 0 854.5 0.6 35
2019-08-22 11:00:00 21 9 Sudeste 16 Sudeste 0 854 0.6 37
2019-08-22 10:00:00 17.7 0 Calma 5 Este 0 853.9 0.5 64
2019-08-22 09:00:00 11.5 0 Calma 7 Norte 0 853.9 0.5 95
2019-08-22 08:00:00 9.5 3 Nordeste 7 Norte 0 853.4 -0.4 97
2019-08-22 07:00:00 9.7 0 Calma 7 Norte 0 853.4 -0.4 94
2019-08-22 06:00:00 11.4 0 Calma 4 Nordeste 0 853.4 -0.5 94
2019-08-22 05:00:00 12.2 0 Calma 5 Sudeste 0 853.8 -0.3 89
2019-08-22 04:00:00 13.4 0 Calma 5 Nordeste 0 853.8 0.1 90
2019-08-22 03:00:00 13.2 3 Nordeste 15 Nordeste 0 853.9 0 89
2019-08-22 02:00:00 12.9 5 Este 18 Nordeste 0 854.1 0.6 64
2019-08-22 01:00:00 12.1 3 Nordeste 8 Norte 0 853.7 0.5 54
2019-08-22 00:00:00 12.7 3 Nordeste 5 Norte 0 853.9 1.4 54
2019-08-21 23:00:00 13.6 4 Nordeste 10 Nordeste 0 853.5 1.8 47
2019-08-21 22:00:00 16 0 Calma 12 Nordeste 0 853.2 1.1 41
2019-08-21 21:00:00 18.8 4 Este 11 Este 0 852.5 0.4 33
2019-08-21 20:00:00 20.8 3 Oeste 12 Noroeste 0 851.7 -0.9 29
2019-08-21 19:00:00 22.5 4 Norte 17 Norte 0 852.1 -0.2 29
2019-08-21 18:00:00 21.6 4 Sudeste 12 Sudoeste 0 852.1 -0.3 44
2019-08-21 17:00:00 19.4 0 Calma 12 Oeste 0 852.6 0.2 58
2019-08-21 16:00:00 20.7 4 Sudoeste 11 Oeste 0 852.3 -0.5 53
2019-08-21 15:00:00 19.1 5 Este 23 Sudeste 0 852.4 -0.3 60
2019-08-21 14:00:00 19.9 7 Este 23 Este 0 852.4 -0.2 59
2019-08-21 13:00:00 19.2 9 Este 24 Sudeste 0 852.8 0.2 67
2019-08-21 12:00:00 18.6 7 Este 19 Este 0 852.7 0 70
2019-08-21 11:00:00 16 6 Este 15 Nordeste 0 852.6 0.3 84
2019-08-21 10:00:00 14.5 5 Este 13 Sudeste 0 852.6 0.3 91
2019-08-21 09:00:00 14 4 Este 10 Este 0 852.7 0.5 92
2019-08-21 08:00:00 13.7 5 Este 12 Nordeste 0 852.3 0 91
2019-08-21 07:00:00 13.5 4 Este 12 Este 0 852.3 0.1 90
2019-08-21 06:00:00 13.4 5 Este 10 Este 0 852.2 -0.3 90
2019-08-21 05:00:00 12.3 5 Este 10 Nordeste 0 852.3 -0.2 90
2019-08-21 04:00:00 12 4 Nordeste 12 Nordeste 0 852.2 -0.5 86
2019-08-21 03:00:00 13.4 7 Nordeste 20 Este 0 852.5 0 78
2019-08-21 02:00:00 14.2 8 Este 21 Este 0 852.5 0.3 69
2019-08-21 01:00:00 13.2 5 Nordeste 12 Este 0 852.7 0.8 49
2019-08-21 00:00:00 15 4 Nordeste 12 Nordeste 0 852.5 1.1 41